createdAt,value
2022-09-07T00:01:00.685Z,99.90
2022-09-07T00:03:29.006Z,99.90
2022-09-07T00:05:57.318Z,99.90
2022-09-07T00:08:27.944Z,99.90
2022-09-07T00:10:59.323Z,99.90
2022-09-07T00:13:29.530Z,99.90
2022-09-07T00:15:58.116Z,99.90
2022-09-07T00:18:27.013Z,99.90
2022-09-07T00:21:02.499Z,99.90
2022-09-07T00:23:31.568Z,99.90
2022-09-07T00:26:05.562Z,99.90
2022-09-07T00:28:34.130Z,99.90
2022-09-07T00:31:02.517Z,99.90
2022-09-07T00:33:31.108Z,99.90
2022-09-07T00:35:59.763Z,99.90
2022-09-07T00:38:57.906Z,99.90
2022-09-07T00:41:27.399Z,99.90
2022-09-07T00:43:57.716Z,99.90
2022-09-07T00:46:27.873Z,99.90
2022-09-07T00:49:08.154Z,99.90
2022-09-07T00:51:42.233Z,99.90
2022-09-07T00:54:13.882Z,99.90
2022-09-07T00:56:46.297Z,99.90
2022-09-07T00:59:17.605Z,99.90
2022-09-07T01:01:46.198Z,99.90
2022-09-07T01:04:16.259Z,99.90
2022-09-07T01:06:44.433Z,99.90
2022-09-07T01:09:15.828Z,99.90
2022-09-07T01:11:50.827Z,99.90
2022-09-07T01:14:21.986Z,99.90
2022-09-07T01:16:59.917Z,99.90
2022-09-07T01:19:50.335Z,99.90
2022-09-07T01:22:38.179Z,99.90
2022-09-07T01:25:11.424Z,99.90
2022-09-07T01:28:10.711Z,99.90
2022-09-07T01:30:40.722Z,99.90
2022-09-07T01:33:35.091Z,99.90
2022-09-07T01:36:15.819Z,99.90
2022-09-07T01:38:47.439Z,99.90
2022-09-07T01:41:19.818Z,99.90
2022-09-07T01:43:54.097Z,99.90
2022-09-07T01:46:27.984Z,99.90
2022-09-07T01:49:00.902Z,99.90
2022-09-07T01:51:33.005Z,99.90
2022-09-07T01:54:08.792Z,99.90
2022-09-07T01:56:40.021Z,99.90
2022-09-07T01:59:15.241Z,99.90
2022-09-07T02:01:50.118Z,99.90
2022-09-07T02:04:21.699Z,99.90
2022-09-07T02:06:54.810Z,99.90
2022-09-07T02:09:31.125Z,99.90
2022-09-07T02:12:03.332Z,99.90
2022-09-07T02:14:38.531Z,99.90
2022-09-07T02:17:13.510Z,99.90
2022-09-07T02:19:44.978Z,99.90
2022-09-07T02:22:19.619Z,99.90
2022-09-07T02:24:52.208Z,99.90
2022-09-07T02:27:26.026Z,99.90
2022-09-07T02:29:55.560Z,99.90
2022-09-07T02:32:23.682Z,99.90
2022-09-07T02:34:51.836Z,99.90
2022-09-07T02:37:21.527Z,99.90
2022-09-07T02:39:50.085Z,99.90
2022-09-07T02:42:18.138Z,99.90
2022-09-07T02:44:46.616Z,99.90
2022-09-07T02:47:26.409Z,99.90
2022-09-07T02:50:27.760Z,99.90
2022-09-07T02:53:09.328Z,99.90
2022-09-07T02:55:48.519Z,99.90
2022-09-07T02:58:29.985Z,99.90
2022-09-07T03:01:08.287Z,99.90
2022-09-07T03:03:46.716Z,99.90
2022-09-07T03:06:23.284Z,99.90
2022-09-07T03:08:55.821Z,99.90
2022-09-07T03:11:24.208Z,99.90
2022-09-07T03:13:52.361Z,99.90
2022-09-07T03:16:20.489Z,99.90
2022-09-07T03:18:50.705Z,99.90
2022-09-07T03:21:18.752Z,99.90
2022-09-07T03:23:51.153Z,99.90
2022-09-07T03:26:24.846Z,99.90
2022-09-07T03:28:53.019Z,99.90
2022-09-07T03:31:21.357Z,99.90
2022-09-07T03:33:50.854Z,99.90
2022-09-07T03:36:18.863Z,99.90
2022-09-07T03:38:47.015Z,99.90
2022-09-07T03:41:15.070Z,99.90
2022-09-07T03:43:43.162Z,99.90
2022-09-07T03:46:11.593Z,99.90
2022-09-07T03:48:39.864Z,99.90
2022-09-07T03:51:11.240Z,99.90
2022-09-07T03:53:41.473Z,99.90
2022-09-07T03:56:11.381Z,99.90
2022-09-07T03:58:39.705Z,99.90
2022-09-07T04:01:10.066Z,99.90
2022-09-07T04:03:39.420Z,99.90
2022-09-07T04:06:09.800Z,99.90
2022-09-07T04:08:40.165Z,99.90
2022-09-07T04:11:10.330Z,99.90
2022-09-07T04:13:38.476Z,99.90
2022-09-07T04:16:15.073Z,99.90
2022-09-07T04:18:43.209Z,99.90
2022-09-07T04:21:13.162Z,99.90
2022-09-07T04:23:42.113Z,99.90
2022-09-07T04:26:15.661Z,99.90
2022-09-07T04:28:43.997Z,99.90
2022-09-07T04:31:12.448Z,99.90
2022-09-07T04:33:41.592Z,99.90
2022-09-07T04:36:10.299Z,99.90
2022-09-07T04:38:40.906Z,99.90
2022-09-07T04:41:11.174Z,99.90
2022-09-07T04:43:40.558Z,99.90
2022-09-07T04:46:12.075Z,99.90
2022-09-07T04:48:40.221Z,99.90
2022-09-07T04:51:10.773Z,99.90
2022-09-07T04:53:40.167Z,99.90
2022-09-07T04:56:08.380Z,99.90
2022-09-07T04:58:37.153Z,99.90
2022-09-07T05:01:06.718Z,99.90
2022-09-07T05:03:37.111Z,99.90
2022-09-07T05:06:06.570Z,99.90
2022-09-07T05:08:37.700Z,99.90
2022-09-07T05:11:07.425Z,99.90
2022-09-07T05:13:35.516Z,99.90
2022-09-07T05:16:09.903Z,99.90
2022-09-07T05:18:38.158Z,99.90
2022-09-07T05:21:11.090Z,99.90
2022-09-07T05:23:39.867Z,99.90
2022-09-07T05:26:10.766Z,99.90
2022-09-07T05:28:39.512Z,99.90
2022-09-07T05:36:35.268Z,99.90
2022-09-07T05:39:03.529Z,99.90
2022-09-07T05:41:32.953Z,99.90
2022-09-07T05:46:49.124Z,99.90
2022-09-07T05:49:17.174Z,99.90
2022-09-07T05:51:45.231Z,99.90
2022-09-07T05:54:13.349Z,99.90
2022-09-07T05:56:42.848Z,99.90
2022-09-07T05:59:11.053Z,99.90
2022-09-07T06:01:39.251Z,99.90
2022-09-07T06:04:07.360Z,99.90
2022-09-07T06:06:39.396Z,99.90
2022-09-07T06:09:09.095Z,99.90
2022-09-07T06:11:37.843Z,99.90
2022-09-07T06:14:07.256Z,99.90
2022-09-07T06:16:35.852Z,99.90
2022-09-07T06:19:06.575Z,99.90
2022-09-07T06:21:37.728Z,99.90
2022-09-07T06:24:06.505Z,99.90
2022-09-07T06:26:34.838Z,99.90
2022-09-07T06:29:04.090Z,99.90
2022-09-07T06:31:34.458Z,99.90
2022-09-07T06:34:02.710Z,99.90
2022-09-07T06:36:31.139Z,99.90
2022-09-07T06:39:27.211Z,99.90
2022-09-07T06:44:31.068Z,99.90
2022-09-07T06:49:33.710Z,99.90
2022-09-07T06:52:12.635Z,99.90
2022-09-07T06:55:03.638Z,99.90
2022-09-07T06:57:35.507Z,99.90
2022-09-07T07:00:07.926Z,99.90
2022-09-07T07:02:45.102Z,99.90
2022-09-07T07:05:17.730Z,99.90
2022-09-07T07:07:47.469Z,99.90
2022-09-07T07:10:20.898Z,99.90
2022-09-07T07:12:53.122Z,99.90
2022-09-07T07:15:21.279Z,99.90
2022-09-07T07:17:58.226Z,99.90
2022-09-07T07:20:28.706Z,99.90
2022-09-07T07:22:56.925Z,99.90
2022-09-07T07:25:25.114Z,99.90
2022-09-07T07:27:53.163Z,99.90
2022-09-07T07:30:21.560Z,99.90
2022-09-07T07:32:50.932Z,99.90
2022-09-07T07:35:18.976Z,99.60
2022-09-07T07:37:48.038Z,99.90
2022-09-07T07:40:17.923Z,99.40
2022-09-07T07:42:48.643Z,98.70
2022-09-07T07:48:06.625Z,97.30
2022-09-07T07:50:34.853Z,97.90
2022-09-07T07:55:51.409Z,98.40
2022-09-07T07:58:19.819Z,96.80
2022-09-07T08:00:54.673Z,96.00
2022-09-07T08:03:25.954Z,95.90
2022-09-07T08:05:54.565Z,95.50
2022-09-07T08:08:24.300Z,93.70
2022-09-07T08:10:52.908Z,93.20
2022-09-07T08:13:21.267Z,92.70
2022-09-07T08:15:49.377Z,93.40
2022-09-07T08:18:18.492Z,92.80
2022-09-07T08:20:48.382Z,92.70
2022-09-07T08:23:16.372Z,92.70
2022-09-07T08:25:54.685Z,91.60
2022-09-07T08:28:23.431Z,91.00
2022-09-07T08:30:51.479Z,90.40
2022-09-07T08:33:19.625Z,88.90
2022-09-07T08:36:00.391Z,89.00
2022-09-07T08:38:29.933Z,88.50
2022-09-07T08:40:58.607Z,89.10
2022-09-07T08:43:34.496Z,88.90
2022-09-07T08:46:08.277Z,86.60
2022-09-07T08:48:36.484Z,88.80
2022-09-07T08:51:12.828Z,88.70
2022-09-07T08:53:46.451Z,87.50
2022-09-07T08:56:19.759Z,87.70
2022-09-07T08:58:50.396Z,87.90
2022-09-07T09:01:35.983Z,89.10
2022-09-07T09:04:22.493Z,89.20
2022-09-07T09:07:06.658Z,89.10
2022-09-07T09:09:58.081Z,89.80
2022-09-07T09:12:37.521Z,90.50
2022-09-07T09:15:17.507Z,90.30
2022-09-07T09:17:52.010Z,90.10
2022-09-07T09:20:25.946Z,89.40
2022-09-07T09:23:01.889Z,89.70
2022-09-07T09:25:34.568Z,89.70
2022-09-07T09:28:03.060Z,90.80
2022-09-07T09:30:31.472Z,90.40
2022-09-07T09:33:15.486Z,90.80
2022-09-07T09:35:45.696Z,90.80
2022-09-07T09:38:39.488Z,90.40
2022-09-07T09:41:09.477Z,90.60
2022-09-07T09:43:42.311Z,90.80
2022-09-07T09:46:23.665Z,91.00
2022-09-07T09:48:56.890Z,91.60
2022-09-07T09:54:25.270Z,90.90
2022-09-07T09:56:53.415Z,91.20
2022-09-07T10:05:29.537Z,91.80
2022-09-07T10:07:58.053Z,91.00
2022-09-07T10:10:29.457Z,91.50
2022-09-07T10:12:58.089Z,90.80
2022-09-07T10:15:40.063Z,90.80
2022-09-07T10:18:17.049Z,90.60
2022-09-07T10:20:45.131Z,91.40
2022-09-07T10:23:22.318Z,91.00
2022-09-07T10:25:51.848Z,90.80
2022-09-07T10:28:21.805Z,91.00
2022-09-07T10:31:04.447Z,91.00
2022-09-07T10:34:25.641Z,90.70
2022-09-07T10:36:41.847Z,89.90
2022-09-07T10:39:17.220Z,90.30
2022-09-07T10:41:50.723Z,89.10
2022-09-07T10:44:24.905Z,90.30
2022-09-07T10:47:00.975Z,90.60
2022-09-07T10:49:37.272Z,90.70
2022-09-07T10:52:14.221Z,91.10
2022-09-07T10:54:51.700Z,90.30
2022-09-07T10:57:42.139Z,89.10
2022-09-07T11:00:14.381Z,89.40
2022-09-07T11:03:25.781Z,90.00
2022-09-07T11:06:16.801Z,90.80
2022-09-07T11:09:18.692Z,90.50
2022-09-07T11:12:01.498Z,91.30
2022-09-07T11:14:36.062Z,90.80
2022-09-07T11:17:08.655Z,91.50
2022-09-07T11:19:44.858Z,91.90
2022-09-07T11:22:20.960Z,91.90
2022-09-07T11:27:48.372Z,92.40
2022-09-07T11:30:23.529Z,92.30
2022-09-07T11:33:00.674Z,92.70
2022-09-07T11:35:36.122Z,92.50
2022-09-07T11:38:14.286Z,93.20
2022-09-07T11:40:59.630Z,93.00
2022-09-07T11:43:31.353Z,92.40
2022-09-07T11:46:05.580Z,91.60
2022-09-07T11:48:37.628Z,91.60
2022-09-07T11:51:11.614Z,90.90
2022-09-07T11:53:45.364Z,91.10
2022-09-07T11:56:18.450Z,91.10
2022-09-07T11:59:09.033Z,90.10
2022-09-07T12:01:48.231Z,86.80
2022-09-07T12:04:29.420Z,85.90
2022-09-07T12:07:27.720Z,82.10
2022-09-07T12:10:11.232Z,83.30
2022-09-07T12:12:56.558Z,82.90
2022-09-07T12:15:33.948Z,81.40
2022-09-07T12:18:27.633Z,78.30
2022-09-07T12:20:56.050Z,77.80
2022-09-07T12:23:30.060Z,75.80
2022-09-07T12:26:35.435Z,73.80
2022-09-07T12:29:23.631Z,70.60
2022-09-07T12:32:52.732Z,69.90
2022-09-07T12:35:03.014Z,70.30
2022-09-07T12:37:39.323Z,69.80
2022-09-07T12:40:45.019Z,67.10
2022-09-07T12:43:36.134Z,64.30
2022-09-07T12:46:04.660Z,59.80
2022-09-07T12:48:46.682Z,59.40
2022-09-07T12:54:25.498Z,61.80
2022-09-07T13:00:00.487Z,71.00
2022-09-07T13:02:41.756Z,69.90
2022-09-07T13:05:20.440Z,71.20
2022-09-07T13:08:16.449Z,72.00
2022-09-07T13:10:46.403Z,73.80
2022-09-07T13:14:02.710Z,74.50
2022-09-07T13:16:32.530Z,76.10
2022-09-07T13:19:53.690Z,77.90
2022-09-07T13:22:57.861Z,78.50
2022-09-07T13:25:48.880Z,81.30
2022-09-07T13:28:26.496Z,83.30
2022-09-07T13:31:08.225Z,85.70
2022-09-07T13:33:52.499Z,85.10
2022-09-07T13:36:30.617Z,87.10
2022-09-07T13:39:00.382Z,86.30
2022-09-07T13:41:34.854Z,86.10
2022-09-07T13:44:05.845Z,86.50
2022-09-07T13:46:50.081Z,85.10
2022-09-07T13:49:33.930Z,85.10
2022-09-07T13:52:08.305Z,84.90
2022-09-07T13:55:04.453Z,83.30
2022-09-07T13:57:40.340Z,80.90
2022-09-07T14:00:15.302Z,82.20
2022-09-07T14:02:43.651Z,82.80
2022-09-07T14:05:18.020Z,82.90
2022-09-07T14:07:46.994Z,83.00
2022-09-07T14:10:19.596Z,82.60
2022-09-07T14:12:50.546Z,83.90
2022-09-07T14:15:22.816Z,83.80
2022-09-07T14:18:00.957Z,82.00
2022-09-07T14:20:29.450Z,83.00
2022-09-07T14:22:58.280Z,82.50
2022-09-07T14:25:27.984Z,82.60
2022-09-07T14:27:57.726Z,81.60
2022-09-07T14:30:29.024Z,82.80
2022-09-07T14:33:00.826Z,81.90
2022-09-07T14:35:33.979Z,79.80
2022-09-07T14:38:07.861Z,79.30
2022-09-07T14:40:37.571Z,79.30
2022-09-07T14:43:26.873Z,79.90
2022-09-07T14:45:55.215Z,79.60
2022-09-07T14:48:31.428Z,79.40
2022-09-07T14:51:19.372Z,79.60
2022-09-07T14:53:50.761Z,80.60
2022-09-07T14:56:23.088Z,80.50
2022-09-07T14:58:52.729Z,79.10
2022-09-07T15:01:38.347Z,81.30
2022-09-07T15:04:18.946Z,79.80
2022-09-07T15:07:02.969Z,79.70
2022-09-07T15:09:37.053Z,80.30
2022-09-07T15:12:18.279Z,80.90
2022-09-07T15:14:47.570Z,82.30
2022-09-07T15:17:47.122Z,81.50
2022-09-07T15:20:44.044Z,81.80
2022-09-07T15:23:13.701Z,83.00
2022-09-07T15:25:45.387Z,82.40
2022-09-07T15:34:03.583Z,83.30
2022-09-07T15:36:32.345Z,84.00
2022-09-07T15:39:01.093Z,82.90
2022-09-07T15:41:29.575Z,84.20
2022-09-07T15:43:59.780Z,83.80
2022-09-07T15:46:28.148Z,85.40
2022-09-07T15:48:57.191Z,84.00
2022-09-07T15:54:15.106Z,83.10
2022-09-07T15:56:44.438Z,83.60
2022-09-07T15:59:33.068Z,83.20
2022-09-07T16:02:03.003Z,83.40
2022-09-07T16:04:31.468Z,82.20
2022-09-07T16:07:01.655Z,81.80
2022-09-07T16:09:29.958Z,83.80
2022-09-07T16:13:00.029Z,82.20
2022-09-07T16:14:47.601Z,83.30
2022-09-07T16:20:04.711Z,83.80
2022-09-07T16:25:20.956Z,83.20
2022-09-07T16:27:49.929Z,83.70
2022-09-07T16:30:19.771Z,85.20
2022-09-07T16:32:48.007Z,86.60
2022-09-07T16:35:16.182Z,87.80
2022-09-07T16:40:32.541Z,90.10
2022-09-07T16:43:01.117Z,90.70
2022-09-07T16:48:18.574Z,92.10
2022-09-07T16:51:00.272Z,91.50
2022-09-07T16:53:29.865Z,91.10
2022-09-07T16:56:01.866Z,91.40
2022-09-07T16:58:38.480Z,92.70
2022-09-07T17:01:09.871Z,92.00
2022-09-07T17:03:39.122Z,91.60
2022-09-07T17:06:09.687Z,91.40
2022-09-07T17:08:38.846Z,91.50
2022-09-07T17:11:08.642Z,91.50
2022-09-07T17:13:38.131Z,91.80
2022-09-07T17:16:10.584Z,92.00
2022-09-07T17:21:30.184Z,92.90
2022-09-07T17:23:58.230Z,90.70
2022-09-07T17:26:27.426Z,91.00
2022-09-07T17:29:00.184Z,90.00
2022-09-07T17:34:20.641Z,90.90
2022-09-07T17:36:48.812Z,90.40
2022-09-07T17:39:18.765Z,88.50
2022-09-07T17:41:47.586Z,88.60
2022-09-07T17:44:15.896Z,88.80
2022-09-07T17:46:45.263Z,88.20
2022-09-07T17:49:16.076Z,89.00
2022-09-07T17:51:45.229Z,89.30
2022-09-07T17:54:15.662Z,90.00
2022-09-07T17:56:44.235Z,89.80
2022-09-07T18:02:02.014Z,90.60
2022-09-07T18:04:30.228Z,91.40
2022-09-07T18:06:58.381Z,91.70
2022-09-07T18:09:26.425Z,92.50
2022-09-07T18:11:54.495Z,93.20
2022-09-07T18:14:22.567Z,93.80
2022-09-07T18:16:51.208Z,94.00
2022-09-07T18:19:20.785Z,94.60
2022-09-07T18:21:50.577Z,95.20
2022-09-07T18:24:21.923Z,95.30
2022-09-07T18:26:52.538Z,95.90
2022-09-07T18:29:33.454Z,96.20
2022-09-07T18:32:08.190Z,96.60
2022-09-07T18:34:41.154Z,97.00
2022-09-07T18:37:11.956Z,97.50
2022-09-07T18:39:40.709Z,97.60
2022-09-07T18:42:09.394Z,98.10
2022-09-07T18:47:29.809Z,98.80
2022-09-07T18:49:59.499Z,99.30
2022-09-07T18:55:16.938Z,99.90
2022-09-07T18:57:45.058Z,99.90
2022-09-07T19:00:14.197Z,99.90
2022-09-07T19:02:42.865Z,99.90
2022-09-07T19:08:03.212Z,99.90
2022-09-07T19:10:33.880Z,99.90
2022-09-07T19:13:01.973Z,99.90
2022-09-07T19:15:31.607Z,99.90
2022-09-07T19:18:04.526Z,99.90
2022-09-07T19:20:34.866Z,99.90
2022-09-07T19:23:03.156Z,99.90
2022-09-07T19:25:31.180Z,99.90
2022-09-07T19:27:59.371Z,99.90
2022-09-07T19:30:27.864Z,99.90
2022-09-07T19:32:57.106Z,99.90
2022-09-07T19:35:26.663Z,99.90
2022-09-07T19:37:55.993Z,99.90
2022-09-07T19:40:24.038Z,99.90
2022-09-07T19:42:52.147Z,99.90
2022-09-07T19:45:20.149Z,99.90
2022-09-07T19:47:50.484Z,99.90
2022-09-07T19:50:22.032Z,99.90
2022-09-07T19:52:50.474Z,99.90
2022-09-07T19:55:19.977Z,99.90
2022-09-07T19:57:50.530Z,99.90
2022-09-07T20:00:19.222Z,99.90
2022-09-07T20:02:49.190Z,99.90
2022-09-07T20:05:17.509Z,99.90
2022-09-07T20:07:45.624Z,99.90
2022-09-07T20:10:13.763Z,99.90
2022-09-07T20:12:43.114Z,99.90
2022-09-07T20:15:11.177Z,99.90
2022-09-07T20:17:39.251Z,99.90
2022-09-07T20:20:08.320Z,99.90
2022-09-07T20:22:36.370Z,99.90
2022-09-07T20:25:04.866Z,99.90
2022-09-07T20:27:35.683Z,99.90
2022-09-07T20:30:05.848Z,99.90
2022-09-07T20:32:34.965Z,99.90
2022-09-07T20:35:03.076Z,99.90
2022-09-07T20:37:31.176Z,99.90
2022-09-07T20:39:59.398Z,99.90
2022-09-07T20:42:27.443Z,99.90
2022-09-07T20:44:55.636Z,99.90
2022-09-07T20:47:25.028Z,99.90
2022-09-07T20:49:53.349Z,99.90
2022-09-07T20:52:21.484Z,99.90
2022-09-07T20:54:49.445Z,99.90
2022-09-07T20:57:17.618Z,99.90
2022-09-07T20:59:45.650Z,99.90
2022-09-07T21:02:13.663Z,99.90
2022-09-07T21:04:43.320Z,99.90
2022-09-07T21:07:11.453Z,99.90
2022-09-07T21:09:39.438Z,99.90
2022-09-07T21:12:07.702Z,99.90
2022-09-07T21:14:35.724Z,99.90
2022-09-07T21:17:03.743Z,99.90
2022-09-07T21:19:31.724Z,99.90
2022-09-07T21:22:01.149Z,99.90
2022-09-07T21:24:29.157Z,99.90
2022-09-07T21:26:57.265Z,99.90
2022-09-07T21:29:26.553Z,99.90
2022-09-07T21:31:55.112Z,99.90
2022-09-07T21:34:23.752Z,99.90
2022-09-07T21:36:52.435Z,99.90
2022-09-07T21:39:22.000Z,99.90
2022-09-07T21:41:50.197Z,99.90
2022-09-07T21:44:18.403Z,99.90
2022-09-07T21:46:47.118Z,99.90
2022-09-07T21:49:15.198Z,99.90
2022-09-07T21:51:43.208Z,99.90
2022-09-07T21:54:11.293Z,99.90
2022-09-07T21:56:45.849Z,99.90
2022-09-07T21:59:14.791Z,99.90
2022-09-07T22:01:42.888Z,99.90
2022-09-07T22:04:10.962Z,99.90
2022-09-07T22:06:39.803Z,99.90
2022-09-07T22:09:07.965Z,99.90
2022-09-07T22:11:36.114Z,99.90
2022-09-07T22:14:06.808Z,99.90
2022-09-07T22:16:35.721Z,99.90
2022-09-07T22:19:04.620Z,99.90
2022-09-07T22:21:33.122Z,99.90
2022-09-07T22:24:03.404Z,99.90
2022-09-07T22:26:33.474Z,99.90
2022-09-07T22:29:01.552Z,99.90
2022-09-07T22:31:32.619Z,99.90
2022-09-07T22:34:02.247Z,99.90
2022-09-07T22:36:32.652Z,99.90
2022-09-07T22:39:03.600Z,99.90
2022-09-07T22:41:33.995Z,99.90
2022-09-07T22:44:02.130Z,99.90
2022-09-07T22:46:35.435Z,99.90
2022-09-07T22:49:03.934Z,99.90
2022-09-07T22:51:32.026Z,99.90
2022-09-07T22:54:00.125Z,99.90
2022-09-07T22:56:31.025Z,99.90
2022-09-07T22:59:01.000Z,99.90
2022-09-07T23:01:31.861Z,99.90
2022-09-07T23:04:00.743Z,99.90
2022-09-07T23:06:30.507Z,99.90
2022-09-07T23:09:00.399Z,99.90
2022-09-07T23:11:29.544Z,99.90
2022-09-07T23:13:58.942Z,99.90
2022-09-07T23:16:28.714Z,99.90
2022-09-07T23:18:59.330Z,99.90
2022-09-07T23:21:28.141Z,99.90
2022-09-07T23:23:58.522Z,99.90
2022-09-07T23:26:28.237Z,99.90
2022-09-07T23:28:58.189Z,99.90
2022-09-07T23:31:27.565Z,99.90
2022-09-07T23:33:58.304Z,99.90
2022-09-07T23:36:26.488Z,99.90
2022-09-07T23:38:56.090Z,99.90
2022-09-07T23:41:25.179Z,99.90
2022-09-07T23:43:53.517Z,99.90
2022-09-07T23:46:21.887Z,99.90
2022-09-07T23:48:50.828Z,99.90
2022-09-07T23:51:24.262Z,99.90
2022-09-07T23:53:53.351Z,99.90
2022-09-07T23:56:21.768Z,99.90
2022-09-07T23:58:49.966Z,99.90
